createdAt,value
2022-08-21T00:02:03.628Z,26.10
2022-08-21T00:04:31.470Z,26.10
2022-08-21T00:07:00.685Z,26.10
2022-08-21T00:09:27.510Z,26.10
2022-08-21T00:11:54.247Z,26.10
2022-08-21T00:14:20.959Z,25.90
2022-08-21T00:16:47.691Z,25.90
2022-08-21T00:19:14.376Z,25.80
2022-08-21T00:21:41.249Z,25.80
2022-08-21T00:24:11.945Z,25.70
2022-08-21T00:26:38.920Z,25.70
2022-08-21T00:29:05.669Z,25.70
2022-08-21T00:31:32.446Z,25.70
2022-08-21T00:34:00.953Z,25.70
2022-08-21T00:36:28.570Z,25.70
2022-08-21T00:38:55.424Z,25.70
2022-08-21T00:41:38.583Z,25.60
2022-08-21T00:44:08.241Z,25.60
2022-08-21T00:46:35.409Z,25.60
2022-08-21T00:49:02.191Z,25.60
2022-08-21T00:51:56.939Z,25.60
2022-08-21T00:54:26.611Z,25.60
2022-08-21T00:57:00.651Z,25.60
2022-08-21T00:59:30.351Z,25.50
2022-08-21T01:01:57.212Z,25.40
2022-08-21T01:04:24.323Z,25.30
2022-08-21T01:06:52.384Z,25.10
2022-08-21T01:09:19.908Z,25.20
2022-08-21T01:11:46.883Z,25.10
2022-08-21T01:14:15.330Z,25.10
2022-08-21T01:16:45.695Z,25.10
2022-08-21T01:19:13.917Z,25.00
2022-08-21T01:21:40.936Z,24.90
2022-08-21T01:24:07.976Z,24.80
2022-08-21T01:26:36.940Z,24.90
2022-08-21T01:29:28.888Z,24.90
2022-08-21T01:31:55.641Z,24.80
2022-08-21T01:34:22.344Z,24.80
2022-08-21T01:36:49.431Z,24.80
2022-08-21T01:39:16.612Z,24.70
2022-08-21T01:41:44.072Z,24.70
2022-08-21T01:44:10.838Z,24.70
2022-08-21T01:46:37.690Z,24.70
2022-08-21T01:49:05.541Z,24.80
2022-08-21T01:51:32.458Z,24.90
2022-08-21T01:53:59.590Z,24.90
2022-08-21T01:56:27.672Z,24.90
2022-08-21T01:58:54.512Z,24.90
2022-08-21T02:01:21.308Z,24.80
2022-08-21T02:06:18.503Z,24.60
2022-08-21T02:08:46.468Z,24.60
2022-08-21T02:13:40.671Z,24.60
2022-08-21T02:16:08.707Z,24.60
2022-08-21T02:18:36.202Z,24.70
2022-08-21T02:21:04.419Z,24.70
2022-08-21T02:23:31.219Z,24.60
2022-08-21T02:25:59.791Z,24.60
2022-08-21T02:28:27.645Z,24.40
2022-08-21T02:30:56.760Z,24.30
2022-08-21T02:33:24.156Z,24.20
2022-08-21T02:35:51.499Z,24.40
2022-08-21T02:38:21.807Z,24.60
2022-08-21T02:40:51.304Z,24.50
2022-08-21T02:43:19.376Z,24.60
2022-08-21T02:45:47.204Z,24.60
2022-08-21T02:48:17.692Z,24.60
2022-08-21T02:51:11.781Z,24.50
2022-08-21T02:53:39.599Z,24.50
2022-08-21T02:56:09.402Z,24.40
2022-08-21T02:58:39.588Z,24.40
2022-08-21T03:01:10.333Z,24.30
2022-08-21T03:03:42.996Z,24.40
2022-08-21T03:06:11.191Z,24.40
2022-08-21T03:08:38.529Z,24.40
2022-08-21T03:11:05.840Z,24.30
2022-08-21T03:13:34.537Z,24.20
2022-08-21T03:16:01.985Z,24.20
2022-08-21T03:18:32.041Z,24.20
2022-08-21T03:20:58.737Z,23.90
2022-08-21T03:23:25.554Z,23.90
2022-08-21T03:25:59.784Z,23.80
2022-08-21T03:28:26.604Z,23.80
2022-08-21T03:30:54.331Z,23.70
2022-08-21T03:33:23.276Z,23.60
2022-08-21T03:36:01.556Z,23.50
2022-08-21T03:38:30.111Z,23.50
2022-08-21T03:40:56.843Z,23.50
2022-08-21T03:43:23.627Z,23.40
2022-08-21T03:45:50.491Z,23.50
2022-08-21T03:48:19.791Z,23.50
2022-08-21T03:50:48.151Z,23.60
2022-08-21T03:53:17.533Z,23.80
2022-08-21T03:55:47.279Z,23.80
2022-08-21T03:58:17.509Z,23.60
2022-08-21T04:00:46.664Z,23.50
2022-08-21T04:03:13.656Z,23.40
2022-08-21T04:08:08.522Z,23.30
2022-08-21T04:10:37.582Z,23.30
2022-08-21T04:13:05.466Z,23.20
2022-08-21T04:15:32.269Z,23.20
2022-08-21T04:17:59.911Z,23.10
2022-08-21T04:20:27.205Z,23.10
2022-08-21T04:22:54.580Z,23.20
2022-08-21T04:25:23.389Z,23.30
2022-08-21T04:27:50.355Z,23.30
2022-08-21T04:30:17.591Z,23.20
2022-08-21T04:32:49.909Z,23.10
2022-08-21T04:35:22.026Z,23.10
2022-08-21T04:37:48.940Z,23.10
2022-08-21T04:40:18.604Z,23.10
2022-08-21T04:42:50.356Z,23.10
2022-08-21T04:45:22.983Z,23.10
2022-08-21T04:47:53.769Z,23.10
2022-08-21T04:50:23.426Z,23.00
2022-08-21T04:52:50.110Z,23.10
2022-08-21T04:55:19.242Z,23.10
2022-08-21T05:00:19.623Z,23.10
2022-08-21T05:05:17.057Z,23.10
2022-08-21T05:07:44.777Z,23.20
2022-08-21T05:10:12.558Z,23.30
2022-08-21T05:12:42.948Z,23.30
2022-08-21T05:15:13.407Z,23.30
2022-08-21T05:17:41.954Z,23.40
2022-08-21T05:20:10.524Z,23.50
2022-08-21T05:22:37.452Z,23.50
2022-08-21T05:25:09.694Z,23.50
2022-08-21T05:27:39.056Z,23.60
2022-08-21T05:30:08.607Z,23.70
2022-08-21T05:35:05.166Z,23.80
2022-08-21T05:37:32.055Z,23.80
2022-08-21T05:40:20.430Z,23.80
2022-08-21T05:42:54.507Z,23.90
2022-08-21T05:45:41.563Z,23.90
2022-08-21T05:48:11.654Z,24.00
2022-08-21T05:50:39.096Z,24.10
2022-08-21T05:53:07.727Z,24.20
2022-08-21T05:55:36.350Z,24.20
2022-08-21T05:58:03.604Z,24.30
2022-08-21T06:00:30.830Z,24.30
2022-08-21T06:02:57.784Z,24.20
2022-08-21T06:08:04.951Z,24.30
2022-08-21T06:10:32.211Z,24.40
2022-08-21T06:12:59.216Z,24.40
2022-08-21T06:15:26.440Z,24.60
2022-08-21T06:17:54.307Z,24.60
2022-08-21T06:20:21.677Z,24.60
2022-08-21T06:27:42.907Z,24.90
2022-08-21T06:30:10.684Z,25.00
2022-08-21T06:35:06.459Z,25.20
2022-08-21T06:37:34.240Z,25.20
2022-08-21T06:40:01.194Z,25.30
2022-08-21T06:42:29.127Z,25.30
2022-08-21T06:44:57.776Z,25.40
2022-08-21T06:47:24.584Z,25.50
2022-08-21T06:49:51.259Z,25.60
2022-08-21T06:52:18.195Z,25.60
2022-08-21T06:54:45.082Z,25.70
2022-08-21T06:57:11.925Z,25.80
2022-08-21T06:59:38.818Z,25.80
2022-08-21T07:02:05.650Z,25.90
2022-08-21T07:04:32.412Z,25.90
2022-08-21T07:06:59.385Z,25.90
2022-08-21T07:11:55.912Z,26.00
2022-08-21T07:14:23.128Z,26.10
2022-08-21T07:16:51.777Z,26.20
2022-08-21T07:19:18.957Z,26.20
2022-08-21T07:24:13.675Z,26.30
2022-08-21T07:26:41.256Z,26.30
2022-08-21T07:29:08.064Z,26.40
2022-08-21T07:31:34.860Z,26.40
2022-08-21T07:34:01.702Z,26.30
2022-08-21T07:38:55.685Z,26.30
2022-08-21T07:41:26.267Z,26.30
2022-08-21T07:43:53.356Z,26.20
2022-08-21T07:46:20.653Z,26.30
2022-08-21T07:48:47.861Z,26.40
2022-08-21T07:51:17.634Z,26.40
2022-08-21T07:53:50.853Z,26.40
2022-08-21T07:56:18.047Z,26.60
2022-08-21T08:03:39.936Z,26.70
2022-08-21T08:06:09.546Z,26.80
2022-08-21T08:11:03.630Z,27.00
2022-08-21T08:13:30.592Z,26.90
2022-08-21T08:15:57.582Z,27.00
2022-08-21T08:20:51.568Z,27.30
2022-08-21T08:25:45.575Z,27.50
2022-08-21T08:28:16.995Z,27.50
2022-08-21T08:30:46.398Z,27.50
2022-08-21T08:33:13.594Z,27.50
2022-08-21T08:35:41.338Z,27.50
2022-08-21T08:40:46.946Z,27.60
2022-08-21T08:43:14.797Z,27.60
2022-08-21T08:45:47.484Z,27.50
2022-08-21T08:48:32.237Z,27.60
2022-08-21T08:51:03.769Z,27.80
2022-08-21T08:53:35.867Z,27.90
2022-08-21T08:56:04.827Z,28.00
2022-08-21T08:58:35.094Z,28.00
2022-08-21T09:01:02.942Z,28.10
2022-08-21T09:03:30.632Z,28.00
2022-08-21T09:06:08.376Z,27.90
2022-08-21T09:09:06.075Z,27.90
2022-08-21T09:11:50.860Z,27.80
2022-08-21T09:14:34.641Z,28.00
2022-08-21T09:17:24.867Z,28.20
2022-08-21T09:20:21.301Z,28.40
2022-08-21T09:23:17.601Z,28.40
2022-08-21T09:25:51.295Z,28.20
2022-08-21T09:28:18.024Z,28.10
2022-08-21T09:30:44.890Z,28.20
2022-08-21T09:33:14.473Z,28.20
2022-08-21T09:35:55.676Z,28.10
2022-08-21T09:38:28.593Z,28.30
2022-08-21T09:41:27.969Z,28.40
2022-08-21T09:43:55.895Z,28.50
2022-08-21T09:46:25.728Z,28.60
2022-08-21T09:48:55.460Z,28.60
2022-08-21T09:51:36.671Z,28.70
2022-08-21T09:54:06.493Z,28.80
2022-08-21T09:56:56.030Z,28.80
2022-08-21T09:59:37.076Z,28.90
2022-08-21T10:02:33.963Z,28.70
2022-08-21T10:05:27.926Z,28.70
2022-08-21T10:07:54.833Z,28.80
2022-08-21T10:10:29.231Z,28.80
2022-08-21T10:13:05.465Z,28.90
2022-08-21T10:16:09.776Z,29.10
2022-08-21T10:18:43.268Z,29.10
2022-08-21T10:21:13.137Z,29.20
2022-08-21T10:23:57.547Z,29.20
2022-08-21T10:26:52.969Z,29.50
2022-08-21T10:32:01.084Z,29.70
2022-08-21T10:34:54.520Z,30.10
2022-08-21T10:37:48.449Z,30.10
2022-08-21T10:40:49.763Z,30.30
2022-08-21T10:43:38.109Z,30.40
2022-08-21T10:46:28.176Z,30.60
2022-08-21T10:48:58.008Z,30.60
2022-08-21T10:51:41.088Z,30.70
2022-08-21T10:54:28.585Z,31.10
2022-08-21T10:57:06.463Z,31.20
2022-08-21T10:59:56.316Z,31.40
2022-08-21T11:02:36.999Z,31.40
2022-08-21T11:05:11.407Z,31.40
2022-08-21T11:08:24.932Z,31.30
2022-08-21T11:11:19.311Z,31.40
2022-08-21T11:14:09.757Z,31.70
2022-08-21T11:16:46.650Z,32.00
2022-08-21T11:19:26.582Z,32.20
2022-08-21T11:22:25.338Z,32.40
2022-08-21T11:25:02.431Z,32.50
2022-08-21T11:27:52.159Z,32.70
2022-08-21T11:30:19.171Z,33.00
2022-08-21T11:33:09.124Z,33.20
2022-08-21T11:35:53.656Z,33.30
2022-08-21T11:38:33.750Z,33.40
2022-08-21T11:41:22.078Z,33.50
2022-08-21T11:43:51.658Z,33.70
2022-08-21T11:46:22.212Z,34.00
2022-08-21T11:49:27.224Z,34.10
2022-08-21T11:51:54.037Z,34.30
2022-08-21T11:54:32.615Z,34.40
2022-08-21T11:57:15.192Z,34.50
2022-08-21T12:00:01.675Z,35.70
2022-08-21T12:02:36.643Z,35.00
2022-08-21T12:05:09.363Z,35.30
2022-08-21T12:07:45.251Z,38.20
2022-08-21T12:10:21.866Z,36.10
2022-08-21T12:12:49.033Z,36.40
2022-08-21T12:15:22.008Z,36.30
2022-08-21T12:17:59.181Z,36.50
2022-08-21T12:20:34.673Z,36.60
2022-08-21T12:23:26.352Z,36.70
2022-08-21T12:26:25.719Z,37.20
2022-08-21T12:29:03.721Z,37.60
2022-08-21T12:31:30.545Z,37.90
2022-08-21T12:34:01.557Z,38.30
2022-08-21T12:36:57.607Z,38.70
2022-08-21T12:39:28.110Z,39.00
2022-08-21T12:42:14.343Z,39.00
2022-08-21T12:44:46.141Z,39.50
2022-08-21T12:47:34.324Z,39.40
2022-08-21T12:50:10.436Z,39.70
2022-08-21T12:52:45.486Z,39.10
2022-08-21T12:55:16.789Z,39.50
2022-08-21T12:57:43.789Z,39.40
2022-08-21T13:00:14.175Z,40.00
2022-08-21T13:02:48.460Z,40.40
2022-08-21T13:05:21.354Z,40.90
2022-08-21T13:07:49.828Z,41.20
2022-08-21T13:10:25.258Z,41.30
2022-08-21T13:12:57.027Z,42.00
2022-08-21T13:15:33.083Z,42.40
2022-08-21T13:18:03.064Z,43.00
2022-08-21T13:20:38.988Z,43.40
2022-08-21T13:23:30.260Z,43.70
2022-08-21T13:25:57.702Z,43.70
2022-08-21T13:28:25.255Z,43.10
2022-08-21T13:30:55.437Z,42.90
2022-08-21T13:33:34.061Z,43.50
2022-08-21T13:36:14.726Z,44.60
2022-08-21T13:38:42.892Z,45.10
2022-08-21T13:41:14.100Z,45.00
2022-08-21T13:43:49.994Z,45.00
2022-08-21T13:46:18.902Z,44.50
2022-08-21T13:48:45.777Z,44.00
2022-08-21T13:51:12.877Z,44.30
2022-08-21T13:53:42.328Z,44.50
2022-08-21T13:56:09.331Z,45.30
2022-08-21T13:58:47.585Z,45.70
2022-08-21T14:01:54.271Z,45.50
2022-08-21T14:04:25.660Z,45.30
2022-08-21T14:06:53.584Z,45.10
2022-08-21T14:09:45.688Z,44.70
2022-08-21T14:12:25.070Z,44.30
2022-08-21T14:14:53.474Z,44.70
2022-08-21T14:17:34.226Z,45.80
2022-08-21T14:22:42.325Z,44.60
2022-08-21T14:25:12.219Z,45.10
2022-08-21T14:27:49.758Z,45.10
2022-08-21T14:30:41.689Z,44.90
2022-08-21T14:33:13.434Z,44.90
2022-08-21T14:35:41.140Z,44.90
2022-08-21T14:38:20.498Z,45.10
2022-08-21T14:40:51.445Z,45.20
2022-08-21T14:43:20.050Z,45.30
2022-08-21T14:48:14.715Z,45.00
2022-08-21T14:55:58.083Z,41.20
2022-08-21T15:00:53.665Z,39.00
2022-08-21T15:13:33.973Z,40.20
2022-08-21T15:18:29.945Z,42.20
2022-08-21T15:20:57.521Z,43.00
2022-08-21T15:23:24.469Z,43.10
2022-08-21T15:25:52.961Z,43.60
2022-08-21T15:28:21.212Z,44.20
2022-08-21T15:30:52.019Z,43.70
2022-08-21T15:33:19.894Z,43.60
2022-08-21T15:35:47.134Z,43.80
2022-08-21T15:40:51.811Z,43.20
2022-08-21T15:43:31.379Z,42.90
2022-08-21T15:46:02.182Z,41.90
2022-08-21T15:50:56.681Z,41.50
2022-08-21T15:55:50.988Z,41.10
2022-08-21T15:58:20.851Z,40.80
2022-08-21T16:00:47.991Z,40.10
2022-08-21T16:03:18.884Z,39.20
2022-08-21T16:05:46.421Z,38.80
2022-08-21T16:08:13.493Z,38.50
2022-08-21T16:10:41.100Z,38.50
2022-08-21T16:13:17.713Z,38.50
2022-08-21T16:15:44.569Z,38.20
2022-08-21T16:18:11.667Z,37.90
2022-08-21T16:20:38.502Z,37.90
2022-08-21T16:25:39.952Z,37.60
2022-08-21T16:28:10.375Z,37.60
2022-08-21T16:30:39.795Z,37.20
2022-08-21T16:33:08.522Z,37.10
2022-08-21T16:35:35.274Z,36.80
2022-08-21T16:38:02.277Z,36.60
2022-08-21T16:40:29.685Z,36.50
2022-08-21T16:42:56.720Z,36.30
2022-08-21T16:45:23.821Z,36.40
2022-08-21T16:47:51.417Z,36.30
2022-08-21T16:50:22.315Z,36.20
2022-08-21T16:52:49.304Z,35.90
2022-08-21T16:55:16.779Z,35.30
2022-08-21T16:57:43.863Z,35.00
2022-08-21T17:00:13.116Z,34.70
2022-08-21T17:02:47.441Z,34.40
2022-08-21T17:05:15.594Z,33.90
2022-08-21T17:07:43.888Z,33.60
2022-08-21T17:10:13.321Z,33.60
2022-08-21T17:12:42.408Z,33.50
2022-08-21T17:15:21.179Z,33.30
2022-08-21T17:17:49.246Z,33.20
2022-08-21T17:22:43.690Z,32.90
2022-08-21T17:25:10.530Z,32.90
2022-08-21T17:27:37.709Z,32.80
2022-08-21T17:30:07.176Z,32.70
2022-08-21T17:32:34.232Z,32.50
2022-08-21T17:35:01.047Z,32.40
2022-08-21T17:37:29.448Z,32.00
2022-08-21T17:39:56.977Z,32.00
2022-08-21T17:42:25.151Z,32.10
2022-08-21T17:44:52.599Z,32.20
2022-08-21T17:47:19.634Z,32.20
2022-08-21T17:49:46.500Z,32.00
2022-08-21T17:52:13.301Z,32.00
2022-08-21T17:54:41.188Z,32.00
2022-08-21T17:57:18.386Z,32.00
2022-08-21T17:59:45.433Z,31.60
2022-08-21T18:02:19.725Z,31.50
2022-08-21T18:04:50.424Z,31.30
2022-08-21T18:07:32.219Z,31.40
2022-08-21T18:10:05.110Z,31.40
2022-08-21T18:12:33.058Z,31.20
2022-08-21T18:15:01.661Z,31.20
2022-08-21T18:17:30.304Z,31.10
2022-08-21T18:19:59.385Z,31.00
2022-08-21T18:22:26.873Z,30.90
2022-08-21T18:24:53.737Z,30.90
2022-08-21T18:27:23.061Z,30.80
2022-08-21T18:29:54.728Z,30.70
2022-08-21T18:32:31.002Z,30.50
2022-08-21T18:35:01.317Z,30.30
2022-08-21T18:37:29.052Z,30.20
2022-08-21T18:39:56.369Z,30.10
2022-08-21T18:42:28.754Z,30.00
2022-08-21T18:45:00.763Z,29.90
2022-08-21T18:47:37.006Z,29.90
2022-08-21T18:50:10.640Z,29.70
2022-08-21T18:52:41.827Z,29.70
2022-08-21T18:55:21.243Z,29.50
2022-08-21T19:00:23.394Z,29.40
2022-08-21T19:05:20.938Z,29.40
2022-08-21T19:10:28.139Z,29.20
2022-08-21T19:15:24.047Z,29.10
2022-08-21T19:17:52.798Z,29.00
2022-08-21T19:20:32.767Z,29.00
2022-08-21T19:23:01.046Z,28.90
2022-08-21T19:40:19.628Z,28.50
2022-08-21T19:47:48.375Z,28.30
2022-08-21T19:50:17.952Z,28.30
2022-08-21T19:52:51.480Z,28.20
2022-08-21T19:55:35.366Z,28.20
2022-08-21T19:58:03.605Z,28.20
2022-08-21T20:00:30.455Z,28.10
2022-08-21T20:02:57.276Z,28.10
2022-08-21T20:05:24.015Z,28.00
2022-08-21T20:07:50.913Z,28.00
2022-08-21T20:10:18.740Z,27.90
2022-08-21T20:12:49.324Z,27.90
2022-08-21T20:15:20.168Z,27.90
2022-08-21T20:17:46.908Z,27.90
2022-08-21T20:20:13.801Z,27.90
2022-08-21T20:22:41.931Z,27.80
2022-08-21T20:25:09.228Z,27.80
2022-08-21T20:27:40.575Z,27.70
2022-08-21T20:30:08.833Z,27.70
2022-08-21T20:32:35.800Z,27.70
2022-08-21T20:35:03.066Z,27.60
2022-08-21T20:37:36.691Z,27.60
2022-08-21T20:40:21.019Z,27.60
2022-08-21T20:42:50.711Z,27.50
2022-08-21T20:45:31.028Z,27.50
2022-08-21T20:48:13.985Z,27.50
2022-08-21T20:50:45.993Z,27.40
2022-08-21T20:53:21.021Z,27.30
2022-08-21T20:55:50.580Z,27.20
2022-08-21T20:58:43.289Z,27.10
2022-08-21T21:01:10.401Z,27.20
2022-08-21T21:04:19.464Z,27.20
2022-08-21T21:09:46.711Z,27.10
2022-08-21T21:12:28.202Z,27.20
2022-08-21T21:14:58.123Z,27.20
2022-08-21T21:17:51.781Z,27.20
2022-08-21T21:20:28.041Z,27.10
2022-08-21T21:23:11.889Z,27.00
2022-08-21T21:25:47.037Z,27.00
2022-08-21T21:28:30.587Z,26.90
2022-08-21T21:30:57.846Z,26.90
2022-08-21T21:33:24.883Z,26.90
2022-08-21T21:35:58.990Z,26.80
2022-08-21T21:38:35.832Z,26.80
2022-08-21T21:41:20.639Z,26.80
2022-08-21T21:44:17.093Z,26.80
2022-08-21T21:47:00.742Z,26.90
2022-08-21T21:49:56.908Z,26.90
2022-08-21T21:52:35.418Z,26.90
2022-08-21T21:55:29.038Z,26.90
2022-08-21T21:58:28.884Z,27.00
2022-08-21T22:01:08.541Z,27.10
2022-08-21T22:03:59.553Z,27.10
2022-08-21T22:06:35.834Z,27.10
2022-08-21T22:09:18.727Z,27.00
2022-08-21T22:12:13.661Z,27.00
2022-08-21T22:14:43.830Z,27.00
2022-08-21T22:17:28.411Z,26.90
2022-08-21T22:19:57.469Z,26.90
2022-08-21T22:22:27.035Z,26.80
2022-08-21T22:25:01.463Z,26.90
2022-08-21T22:27:34.483Z,26.80
2022-08-21T22:30:07.376Z,26.70
2022-08-21T22:35:33.282Z,26.40
2022-08-21T22:38:01.529Z,26.30
2022-08-21T22:40:34.216Z,26.20
2022-08-21T22:43:08.250Z,26.20
2022-08-21T22:45:54.221Z,26.10
2022-08-21T22:48:23.086Z,26.10
2022-08-21T22:51:29.907Z,26.10
2022-08-21T22:53:57.772Z,26.00
2022-08-21T22:56:31.902Z,26.10
2022-08-21T22:59:03.032Z,26.00
2022-08-21T23:01:35.850Z,26.00
2022-08-21T23:04:22.164Z,26.00
2022-08-21T23:06:58.208Z,26.10
2022-08-21T23:09:34.138Z,25.00
2022-08-21T23:12:21.141Z,26.10
2022-08-21T23:17:45.529Z,26.10
2022-08-21T23:20:38.017Z,26.10
2022-08-21T23:23:14.136Z,26.10
2022-08-21T23:26:07.459Z,26.10
2022-08-21T23:28:55.144Z,26.00
2022-08-21T23:31:28.080Z,26.10
2022-08-21T23:34:20.105Z,26.00
2022-08-21T23:37:49.215Z,25.90
2022-08-21T23:40:39.118Z,25.90
2022-08-21T23:43:37.429Z,25.90
2022-08-21T23:46:33.386Z,25.80
2022-08-21T23:49:31.515Z,25.80
2022-08-21T23:52:14.377Z,25.80
2022-08-21T23:54:49.940Z,25.70
2022-08-21T23:57:31.463Z,25.70
